Time;durP1;ratioP1;P1;durP2;ratioP2;P2;SDS_P1;SDS_P2;PMS_P1;PMS_P2;Temp;Humidity;BMP_temperature;BMP_pressure;BME280_temperature;BME280_humidity;BME280_pressure;Samples;Min_cycle;Max_cycle;Signal;HPM_P1;HPM_P2
2023/12/24 00:01:35;;;;;;;5.38;3.05;;;;;;;2.72;100.00;100039.53;5053220;28;20032;-69
2023/12/24 00:04:02;;;;;;;5.00;2.60;;;;;;;2.72;100.00;100040.34;5064540;28;20052;-70
2023/12/24 00:06:28;;;;;;;4.18;2.63;;;;;;;2.71;100.00;100033.44;5050015;28;20049;-69
2023/12/24 00:08:53;;;;;;;3.30;2.38;;;;;;;2.70;100.00;100028.38;5066493;28;20131;-69
2023/12/24 00:11:19;;;;;;;4.40;2.78;;;;;;;2.69;100.00;100029.41;5048579;28;20032;-69
2023/12/24 00:13:44;;;;;;;4.30;2.38;;;;;;;2.69;100.00;100039.97;5048897;28;20768;-70
2023/12/24 00:16:10;;;;;;;4.47;2.80;;;;;;;2.66;100.00;100029.88;5036804;28;20119;-69
2023/12/24 00:18:36;;;;;;;4.10;2.60;;;;;;;2.67;100.00;100023.56;5050395;28;20063;-69
2023/12/24 00:21:01;;;;;;;3.08;2.33;;;;;;;2.69;100.00;100026.75;5045202;28;20124;-70
2023/12/24 00:23:28;;;;;;;3.78;2.75;;;;;;;2.67;100.00;100029.66;5053861;28;20056;-69
2023/12/24 00:25:53;;;;;;;3.70;2.53;;;;;;;2.68;100.00;100022.50;5054157;28;20048;-69
2023/12/24 00:28:19;;;;;;;4.53;2.75;;;;;;;2.69;100.00;100024.13;5051382;28;20036;-70
2023/12/24 00:30:46;;;;;;;2.70;2.15;;;;;;;2.71;100.00;100032.63;5015160;28;20063;-69
2023/12/24 00:33:11;;;;;;;2.58;2.05;;;;;;;2.69;100.00;100034.69;5054144;28;20024;-70
2023/12/24 00:35:37;;;;;;;3.78;2.15;;;;;;;2.68;100.00;100011.94;5048590;28;20049;-69
2023/12/24 00:38:03;;;;;;;4.00;2.40;;;;;;;2.63;100.00;100003.91;5051128;28;20040;-70
2023/12/24 00:40:28;;;;;;;3.17;2.42;;;;;;;2.66;100.00;100006.09;5048266;28;20037;-69
2023/12/24 00:42:54;;;;;;;3.35;2.00;;;;;;;2.69;100.00;100010.91;5019447;28;20143;-70
2023/12/24 00:45:20;;;;;;;4.32;2.78;;;;;;;2.67;100.00;99997.91;5049372;28;20041;-69
2023/12/24 00:47:46;;;;;;;2.42;1.83;;;;;;;2.69;100.00;100000.31;5038421;28;20040;-68
2023/12/24 00:50:11;;;;;;;2.78;2.25;;;;;;;2.71;100.00;100000.91;5056358;28;20068;-69
2023/12/24 00:52:37;;;;;;;2.83;2.45;;;;;;;2.72;100.00;99991.94;5054629;28;20041;-69
2023/12/24 00:55:04;;;;;;;2.60;1.75;;;;;;;2.73;100.00;99996.19;5048916;28;20043;-70
2023/12/24 00:57:30;;;;;;;2.78;2.20;;;;;;;2.76;100.00;99997.53;5033989;28;20047;-70
2023/12/24 00:59:56;;;;;;;3.08;2.15;;;;;;;2.77;100.00;99993.84;5054534;28;20032;-71
2023/12/24 01:02:22;;;;;;;3.13;1.95;;;;;;;2.77;100.00;99989.38;5049599;28;20644;-71
2023/12/24 01:04:48;;;;;;;2.97;1.98;;;;;;;2.78;100.00;99990.16;5051625;28;20585;-69
2023/12/24 01:07:13;;;;;;;4.43;2.47;;;;;;;2.78;100.00;99987.53;5052514;28;20119;-69
2023/12/24 01:09:39;;;;;;;3.40;2.47;;;;;;;2.79;100.00;99989.94;5024531;28;20040;-70
2023/12/24 01:12:06;;;;;;;3.55;2.40;;;;;;;2.80;100.00;99988.91;5025468;28;20032;-69
2023/12/24 01:14:32;;;;;;;3.10;2.40;;;;;;;2.84;100.00;99984.72;5051637;28;20574;-70
2023/12/24 01:17:03;;;;;;;2.78;2.15;;;;;;;2.88;100.00;99985.06;5055511;28;20473;-70
2023/12/24 01:19:31;;;;;;;5.15;2.75;;;;;;;2.89;100.00;99992.75;5028501;28;20056;-69
2023/12/24 01:21:57;;;;;;;3.42;2.10;;;;;;;2.94;100.00;99995.50;5058865;28;20143;-70
2023/12/24 01:24:23;;;;;;;4.03;2.35;;;;;;;2.95;100.00;99977.78;5032743;28;20040;-69
2023/12/24 01:26:48;;;;;;;3.55;2.40;;;;;;;2.96;100.00;99988.13;5056156;28;20115;-71
2023/12/24 01:29:14;;;;;;;4.55;2.60;;;;;;;2.95;100.00;99981.25;5069547;28;20391;-69
2023/12/24 01:31:40;;;;;;;4.30;2.90;;;;;;;2.95;100.00;99981.25;5054556;28;20033;-70
2023/12/24 01:34:05;;;;;;;4.25;2.47;;;;;;;2.96;100.00;99977.56;5051744;28;20114;-69
2023/12/24 01:36:31;;;;;;;4.03;3.00;;;;;;;2.96;100.00;99974.91;5038006;28;20077;-69
2023/12/24 01:38:57;;;;;;;4.03;2.85;;;;;;;3.00;100.00;99976.03;5057004;28;20083;-68
2023/12/24 01:41:24;;;;;;;4.65;3.10;;;;;;;3.01;100.00;99971.56;5054909;28;20630;-69
2023/12/24 01:43:49;;;;;;;4.43;3.22;;;;;;;3.02;100.00;99970.50;5042677;28;20040;-69
2023/12/24 01:46:24;;;;;;;3.95;3.28;;;;;;;3.01;100.00;99971.56;5055639;28;20527;-70
2023/12/24 01:48:50;;;;;;;5.00;3.03;;;;;;;3.01;100.00;99964.41;5052593;28;20032;-69
2023/12/24 01:51:19;;;;;;;5.25;3.35;;;;;;;3.04;100.00;99967.63;5053299;28;20036;-71
2023/12/24 01:53:47;;;;;;;6.18;3.90;;;;;;;3.04;100.00;99967.63;5041936;28;21037;-71
2023/12/24 01:56:15;;;;;;;5.68;3.90;;;;;;;3.05;100.00;99958.63;5057929;28;20040;-71
2023/12/24 01:58:41;;;;;;;5.45;3.75;;;;;;;3.08;100.00;99947.59;5055565;28;20123;-70
2023/12/24 02:01:08;;;;;;;5.05;3.63;;;;;;;3.10;100.00;99935.72;5055184;28;20116;-72
2023/12/24 02:03:36;;;;;;;5.28;4.20;;;;;;;3.13;100.00;99943.19;5067902;28;20039;-69
2023/12/24 02:06:04;;;;;;;6.03;3.50;;;;;;;3.17;100.00;99940.84;5057774;28;20687;-70
2023/12/24 02:08:30;;;;;;;5.95;4.13;;;;;;;3.21;100.00;99934.06;5044934;28;20107;-69
2023/12/24 02:10:55;;;;;;;5.25;3.42;;;;;;;3.25;100.00;99933.34;5057463;28;20036;-70
2023/12/24 02:13:21;;;;;;;5.90;3.70;;;;;;;3.31;100.00;99926.25;5039625;28;20032;-69
2023/12/24 02:15:51;;;;;;;5.70;3.60;;;;;;;3.37;100.00;99925.28;5055138;28;20118;-70
2023/12/24 02:18:17;;;;;;;5.22;3.55;;;;;;;3.38;100.00;99926.91;5035029;28;20060;-70
2023/12/24 02:20:43;;;;;;;5.93;4.07;;;;;;;3.43;100.00;99926.19;5048366;28;20565;-70
2023/12/24 02:23:08;;;;;;;3.85;1.90;;;;;;;3.56;100.00;99920.56;5038833;28;20055;-70
2023/12/24 02:25:34;;;;;;;4.90;2.00;;;;;;;4.25;100.00;99906.84;5057195;28;20039;-69
2023/12/24 02:28:24;;;;;;;1.17;0.80;;;;;;;4.94;100.00;99901.69;5058469;28;20045;-69
2023/12/24 02:30:57;;;;;;;2.55;0.80;;;;;;;5.61;100.00;99908.28;5055198;28;20060;-70
2023/12/24 02:33:32;;;;;;;1.60;0.77;;;;;;;5.84;100.00;99913.22;5036339;28;20041;-70
2023/12/24 02:36:02;;;;;;;2.00;0.80;;;;;;;6.09;100.00;99901.09;5051702;28;20119;-69
2023/12/24 02:38:28;;;;;;;2.17;1.10;;;;;;;6.24;100.00;99894.00;5054979;28;20507;-70
2023/12/24 02:40:54;;;;;;;2.05;0.90;;;;;;;6.39;100.00;99890.59;5056837;28;20540;-69
2023/12/24 02:43:20;;;;;;;1.98;0.90;;;;;;;6.40;100.00;99891.38;5058313;28;20052;-70
2023/12/24 02:45:45;;;;;;;1.83;1.00;;;;;;;6.52;100.00;99903.38;5042253;28;20043;-69
2023/12/24 02:48:11;;;;;;;1.60;0.80;;;;;;;6.55;100.00;99900.19;5057617;28;20519;-70
2023/12/24 02:50:37;;;;;;;1.90;0.90;;;;;;;6.67;100.00;99891.16;5065229;28;20048;-69
2023/12/24 02:53:03;;;;;;;1.70;0.80;;;;;;;6.74;100.00;99891.72;5052124;28;20029;-70
2023/12/24 02:55:29;;;;;;;1.35;0.95;;;;;;;6.79;100.00;99895.19;5057457;28;20036;-71
2023/12/24 02:57:55;;;;;;;1.88;0.90;;;;;;;6.84;100.00;99889.88;5052901;28;20047;-70
2023/12/24 03:00:20;;;;;;;1.77;0.88;;;;;;;6.86;100.00;99886.94;5053941;28;20033;-70
2023/12/24 03:02:47;;;;;;;0.90;0.80;;;;;;;6.92;100.00;99893.06;5039223;28;20113;-70
2023/12/24 03:05:13;;;;;;;2.47;0.63;;;;;;;6.94;100.00;99881.06;5057661;28;20040;-70
2023/12/24 03:07:42;;;;;;;1.75;1.10;;;;;;;7.00;100.00;99889.88;5053967;28;20043;-70
2023/12/24 03:10:08;;;;;;;2.08;0.80;;;;;;;7.03;100.00;99886.66;5056860;28;20044;-70
2023/12/24 03:12:33;;;;;;;2.13;1.17;;;;;;;7.06;100.00;99883.47;5051751;28;20044;-69
2023/12/24 03:14:59;;;;;;;1.13;0.70;;;;;;;7.08;100.00;99876.00;5052790;28;20037;-69
2023/12/24 03:17:29;;;;;;;1.33;0.80;;;;;;;7.08;100.00;99876.00;5057407;28;20028;-70
2023/12/24 03:19:55;;;;;;;0.98;0.68;;;;;;;7.10;100.00;99872.00;5056990;28;20032;-71
2023/12/24 03:22:23;;;;;;;1.00;0.70;;;;;;;7.13;100.00;99870.69;5038190;28;20041;-70
2023/12/24 03:24:49;;;;;;;1.90;0.90;;;;;;;7.16;100.00;99878.13;5050143;28;20496;-71
2023/12/24 03:27:15;;;;;;;0.95;0.70;;;;;;;7.19;100.00;99871.50;5041471;28;20040;-70
2023/12/24 03:29:41;;;;;;;1.95;0.82;;;;;;;7.19;100.00;99864.28;5048950;28;20114;-70
2023/12/24 03:32:06;;;;;;;1.15;0.60;;;;;;;7.24;100.00;99866.94;5054582;28;20059;-71
2023/12/24 03:34:32;;;;;;;1.25;0.60;;;;;;;7.26;100.00;99862.16;5056888;28;20028;-71
2023/12/24 03:36:57;;;;;;;0.80;0.50;;;;;;;7.28;100.00;99860.00;5060362;28;20041;-71
2023/12/24 03:39:23;;;;;;;0.75;0.50;;;;;;;7.31;100.00;99864.78;5053790;28;20040;-71
2023/12/24 03:41:49;;;;;;;1.50;0.90;;;;;;;7.33;100.00;99857.34;5074407;28;20032;-71
2023/12/24 03:44:14;;;;;;;1.00;0.50;;;;;;;7.36;100.00;99867.44;5055681;28;20036;-70
2023/12/24 03:46:40;;;;;;;1.10;0.90;;;;;;;7.37;100.00;99858.38;5058919;28;20085;-71
2023/12/24 03:49:08;;;;;;;0.95;0.60;;;;;;;7.39;100.00;99856.28;5051604;28;20127;-70
2023/12/24 03:51:34;;;;;;;1.05;0.80;;;;;;;7.39;100.00;99860.81;5052373;28;20498;-71
2023/12/24 03:54:00;;;;;;;1.38;0.93;;;;;;;7.42;100.00;99854.13;5072454;28;20024;-70
2023/12/24 03:56:26;;;;;;;0.90;0.70;;;;;;;7.44;100.00;99847.44;5056238;28;20037;-70
2023/12/24 03:58:52;;;;;;;2.47;0.80;;;;;;;7.44;100.00;99851.97;5036125;28;21815;-70
2023/12/24 04:01:17;;;;;;;1.40;0.70;;;;;;;7.46;100.00;99855.19;5056808;28;20039;-70
2023/12/24 04:03:44;;;;;;;2.97;0.90;;;;;;;7.47;100.00;99841.59;5056084;28;20112;-70
2023/12/24 04:06:13;;;;;;;1.02;0.68;;;;;;;7.51;100.00;99852.50;5058865;28;20111;-71
2023/12/24 04:08:39;;;;;;;1.70;1.05;;;;;;;7.51;100.00;99841.84;5057837;28;20037;-71
2023/12/24 04:11:12;;;;;;;;;;;;;;;7.52;100.00;99846.09;5053020;28;20528;-70
2023/12/24 04:13:38;;;;;;;1.20;0.90;;;;;;;7.52;100.00;99854.09;5052690;28;19928;-71
2023/12/24 04:16:05;;;;;;;1.85;0.82;;;;;;;7.51;100.00;99844.50;5045167;28;20036;-71
2023/12/24 04:18:31;;;;;;;1.23;0.82;;;;;;;7.50;100.00;99850.91;5041843;28;20036;-71
2023/12/24 04:20:56;;;;;;;4.00;0.80;;;;;;;7.51;100.00;99850.63;5055628;28;20032;-71
2023/12/24 04:23:22;;;;;;;1.25;0.73;;;;;;;7.51;100.00;99857.81;5051894;28;20029;-70
2023/12/24 04:25:47;;;;;;;1.55;1.00;;;;;;;7.51;100.00;99849.84;5053827;28;20036;-70
2023/12/24 04:28:13;;;;;;;1.75;0.80;;;;;;;7.52;100.00;99846.09;5052356;28;20078;-71
2023/12/24 04:30:39;;;;;;;1.45;0.90;;;;;;;7.53;100.00;99853.03;5055805;28;20057;-70
2023/12/24 04:33:04;;;;;;;1.70;0.80;;;;;;;7.54;100.00;99843.97;5058464;28;20115;-70
2023/12/24 04:35:30;;;;;;;1.30;0.70;;;;;;;7.54;100.00;99852.78;5040389;28;20032;-70
2023/12/24 04:37:56;;;;;;;1.42;0.60;;;;;;;7.56;100.00;99836.50;5051269;28;20028;-70
2023/12/24 04:40:22;;;;;;;2.00;0.70;;;;;;;7.58;100.00;99834.34;5042929;28;20036;-69
2023/12/24 04:42:48;;;;;;;2.28;1.23;;;;;;;7.59;100.00;99834.09;5057309;28;20039;-69
2023/12/24 04:45:13;;;;;;;1.25;0.70;;;;;;;7.60;100.00;99835.69;5055928;28;20051;-70
2023/12/24 04:47:39;;;;;;;2.60;0.85;;;;;;;7.59;100.00;99823.44;5044885;28;20109;-71
2023/12/24 04:50:05;;;;;;;1.08;0.75;;;;;;;7.58;100.00;99831.69;5056544;28;20102;-71
2023/12/24 04:52:35;;;;;;;1.50;0.98;;;;;;;7.56;100.00;99823.97;5058331;28;20115;-70
2023/12/24 04:55:04;;;;;;;1.83;0.70;;;;;;;7.56;100.00;99828.50;5058585;28;20039;-69
2023/12/24 04:57:33;;;;;;;1.45;0.70;;;;;;;7.58;100.00;99839.69;5075184;28;20029;-69
2023/12/24 04:59:59;;;;;;;1.30;0.63;;;;;;;7.58;100.00;99839.69;5045836;28;20119;-70
2023/12/24 05:02:26;;;;;;;1.20;0.90;;;;;;;7.58;100.00;99837.81;5053070;28;20067;-70
2023/12/24 05:04:54;;;;;;;1.42;0.90;;;;;;;7.60;100.00;99840.22;5056692;28;20131;-70
2023/12/24 05:07:20;;;;;;;1.23;0.80;;;;;;;7.61;100.00;99821.31;5057917;28;20131;-70
2023/12/24 05:09:46;;;;;;;1.00;0.80;;;;;;;7.61;100.00;99836.50;5030471;28;20157;-70
2023/12/24 05:12:12;;;;;;;1.40;0.60;;;;;;;7.62;100.00;99827.44;5064239;28;20837;-70
2023/12/24 05:14:38;;;;;;;1.23;0.65;;;;;;;7.62;100.00;99827.44;5037362;28;20037;-70
2023/12/24 05:17:03;;;;;;;1.20;0.82;;;;;;;7.62;100.00;99835.41;5025924;28;20032;-71
2023/12/24 05:19:29;;;;;;;1.83;0.70;;;;;;;7.62;100.00;99830.88;5034961;28;20123;-71
2023/12/24 05:21:54;;;;;;;1.35;1.00;;;;;;;7.63;100.00;99829.00;5055581;28;20044;-71
2023/12/24 05:24:20;;;;;;;1.00;0.65;;;;;;;7.63;100.00;99813.81;5055880;28;20040;-71
2023/12/24 05:26:46;;;;;;;1.70;1.02;;;;;;;7.65;100.00;99826.88;5026078;28;20036;-70
2023/12/24 05:29:12;;;;;;;0.70;0.52;;;;;;;7.63;100.00;99818.34;5054201;28;20035;-70
2023/12/24 05:31:41;;;;;;;1.52;0.60;;;;;;;7.65;100.00;99821.53;5058203;28;20036;-70
2023/12/24 05:34:08;;;;;;;1.77;0.80;;;;;;;7.66;100.00;99828.50;5055832;28;20477;-70
2023/12/24 05:36:34;;;;;;;;;;;;;;;7.69;100.00;99819.94;5060183;28;20036;-70
2023/12/24 05:39:00;;;;;;;1.15;0.50;;;;;;;7.69;100.00;99814.59;5056691;28;19917;-70
2023/12/24 05:41:27;;;;;;;1.00;0.60;;;;;;;7.71;100.00;99807.13;5043023;28;20536;-70
2023/12/24 05:43:52;;;;;;;0.90;0.80;;;;;;;7.72;100.00;99810.59;5056254;28;20093;-70
2023/12/24 05:46:20;;;;;;;0.93;0.60;;;;;;;7.72;100.00;99803.38;5044447;28;20041;-70
2023/12/24 05:48:46;;;;;;;0.80;0.70;;;;;;;7.73;100.00;99809.53;5056700;28;20047;-70
2023/12/24 05:51:11;;;;;;;0.73;0.40;;;;;;;7.73;100.00;99794.34;5069186;28;20025;-70
2023/12/24 05:53:37;;;;;;;0.77;0.50;;;;;;;7.73;100.00;99793.56;5055862;28;20052;-70
2023/12/24 05:56:03;;;;;;;0.30;0.30;;;;;;;7.73;100.00;99791.69;5058352;28;20127;-70
2023/12/24 05:58:29;;;;;;;0.57;0.40;;;;;;;7.75;100.00;99794.88;5056644;28;20409;-70
2023/12/24 06:00:54;;;;;;;0.70;0.60;;;;;;;7.73;100.00;99791.69;5056248;28;20490;-71
2023/12/24 06:03:20;;;;;;;0.63;0.40;;;;;;;7.74;100.00;99797.81;5059478;28;20561;-71
2023/12/24 06:05:46;;;;;;;0.80;0.60;;;;;;;7.75;100.00;99776.22;5062061;28;20079;-70
2023/12/24 06:08:14;;;;;;;1.58;0.40;;;;;;;7.75;100.00;99789.53;5059276;28;20572;-71
2023/12/24 06:10:40;;;;;;;0.68;0.40;;;;;;;7.79;100.00;99793.25;5060944;28;20028;-70
2023/12/24 06:13:05;;;;;;;1.05;0.45;;;;;;;7.77;100.00;99786.59;5041103;28;20036;-70
2023/12/24 06:15:31;;;;;;;0.68;0.35;;;;;;;7.81;100.00;99779.66;5054014;28;20115;-70
2023/12/24 06:17:56;;;;;;;0.98;0.75;;;;;;;7.82;100.00;99784.69;5018680;28;20033;-71
2023/12/24 06:20:22;;;;;;;0.98;0.68;;;;;;;7.80;100.00;99776.19;5052608;28;20049;-70
2023/12/24 06:22:48;;;;;;;0.90;0.77;;;;;;;7.84;100.00;99779.09;5058211;28;20322;-70
2023/12/24 06:25:13;;;;;;;1.65;0.65;;;;;;;7.83;100.00;99778.28;5058416;28;20513;-70
2023/12/24 06:27:39;;;;;;;1.58;0.70;;;;;;;7.84;100.00;99773.75;5056360;28;20098;-71
2023/12/24 06:30:05;;;;;;;2.08;0.77;;;;;;;7.85;100.00;99770.81;5057976;28;20028;-71
2023/12/24 06:32:31;;;;;;;;;;;;;;;7.85;100.00;99776.13;5042571;28;20044;-70
2023/12/24 06:34:57;;;;;;;1.05;0.95;;;;;;;7.85;100.00;99773.47;5055951;28;19924;-70
2023/12/24 06:37:23;;;;;;;;;;;;;;;7.86;100.00;99775.09;5054244;28;20116;-70
2023/12/24 06:39:48;;;;;;;0.88;0.70;;;;;;;7.87;100.00;99770.56;5067680;28;20008;-70
2023/12/24 06:42:14;;;;;;;2.08;0.80;;;;;;;7.87;100.00;99770.56;5055804;28;20048;-70
2023/12/24 06:44:42;;;;;;;1.65;0.80;;;;;;;7.86;100.00;99767.09;5052536;28;20494;-71
2023/12/24 06:47:08;;;;;;;1.23;0.70;;;;;;;7.86;100.00;99758.31;5056548;28;20039;-71
2023/12/24 06:49:34;;;;;;;1.17;0.82;;;;;;;7.86;100.00;99758.31;5056509;28;20097;-71
2023/12/24 06:51:59;;;;;;;1.00;0.90;;;;;;;7.89;100.00;99761.19;5059414;28;20052;-70
2023/12/24 06:54:25;;;;;;;0.80;0.68;;;;;;;7.90;100.00;99760.13;5043063;28;20036;-70
2023/12/24 06:56:51;;;;;;;2.67;1.00;;;;;;;7.92;100.00;99749.19;5042124;28;20049;-70
2023/12/24 06:59:17;;;;;;;1.10;0.93;;;;;;;7.92;100.00;99758.00;5060208;28;20040;-70
2023/12/24 07:01:42;;;;;;;1.35;0.90;;;;;;;7.94;100.00;99761.19;5056880;28;20036;-71
2023/12/24 07:04:08;;;;;;;1.13;0.90;;;;;;;7.93;100.00;99759.59;5052243;28;20108;-71
2023/12/24 07:06:33;;;;;;;1.17;1.05;;;;;;;7.93;100.00;99754.25;5054493;28;20040;-71
2023/12/24 07:08:59;;;;;;;1.45;1.02;;;;;;;7.93;100.00;99748.94;5058292;28;20085;-72
2023/12/24 07:11:24;;;;;;;2.08;0.88;;;;;;;7.93;100.00;99748.94;5060451;28;20124;-71
2023/12/24 07:13:50;;;;;;;1.35;1.25;;;;;;;7.93;100.00;99756.94;5052972;28;20803;-71
2023/12/24 07:16:16;;;;;;;4.25;0.90;;;;;;;7.96;100.00;99744.09;5056192;28;20047;-71
2023/12/24 07:18:41;;;;;;;0.95;0.60;;;;;;;7.97;100.00;99737.69;5057655;28;20044;-71
2023/12/24 07:21:07;;;;;;;1.40;1.00;;;;;;;7.98;100.00;99745.41;5057182;28;20032;-72
2023/12/24 07:23:33;;;;;;;0.82;0.70;;;;;;;8.01;100.00;99744.09;5070777;28;20036;-71
2023/12/24 07:25:59;;;;;;;2.17;1.20;;;;;;;8.01;100.00;99739.53;5055379;28;20603;-71
2023/12/24 07:28:24;;;;;;;1.10;0.90;;;;;;;8.00;100.00;99734.50;5056805;28;20537;-71
2023/12/24 07:30:50;;;;;;;1.02;0.93;;;;;;;8.00;100.00;99742.50;5058438;28;20051;-71
2023/12/24 07:33:16;;;;;;;1.30;1.00;;;;;;;7.99;100.00;99743.53;5056038;28;20114;-71
2023/12/24 07:35:41;;;;;;;1.00;0.80;;;;;;;7.97;100.00;99733.16;5052978;28;20071;-71
2023/12/24 07:38:07;;;;;;;1.15;0.90;;;;;;;8.01;100.00;99733.41;5077820;28;20074;-72
2023/12/24 07:40:32;;;;;;;1.63;0.80;;;;;;;8.03;100.00;99736.59;5057828;28;20037;-71
2023/12/24 07:42:59;;;;;;;1.33;1.17;;;;;;;8.04;100.00;99738.19;5041496;28;20041;-71
2023/12/24 07:45:26;;;;;;;3.17;1.00;;;;;;;8.05;100.00;99729.91;5056203;28;20032;-71
2023/12/24 07:47:52;;;;;;;1.17;1.05;;;;;;;8.08;100.00;99739.22;5057129;28;20074;-71
2023/12/24 07:50:18;;;;;;;1.33;0.95;;;;;;;8.09;100.00;99732.81;5055830;28;20067;-71
2023/12/24 07:52:44;;;;;;;1.10;0.80;;;;;;;8.09;100.00;99732.81;5056251;28;20087;-71
2023/12/24 07:55:09;;;;;;;1.20;1.00;;;;;;;8.09;100.00;99730.94;5053149;28;20486;-71
2023/12/24 07:57:35;;;;;;;2.13;1.13;;;;;;;8.10;100.00;99729.88;5054494;28;20162;-71
2023/12/24 08:00:01;;;;;;;2.00;1.00;;;;;;;8.12;100.00;99727.72;5060532;28;20800;-71
2023/12/24 08:02:27;;;;;;;1.30;1.17;;;;;;;8.13;100.00;99725.88;5051650;28;20094;-71
2023/12/24 08:04:55;;;;;;;1.75;1.13;;;;;;;8.12;100.00;99724.25;5024691;28;20469;-71
2023/12/24 08:07:21;;;;;;;1.38;1.00;;;;;;;8.15;100.00;99718.38;5054727;28;20062;-71
2023/12/24 08:09:47;;;;;;;1.00;0.90;;;;;;;8.16;100.00;99717.31;5055321;28;20032;-71
2023/12/24 08:12:13;;;;;;;1.40;1.20;;;;;;;8.16;100.00;99709.31;5045954;28;20090;-71
2023/12/24 08:14:39;;;;;;;1.60;1.50;;;;;;;8.17;100.00;99721.56;5068739;28;20039;-71
2023/12/24 08:17:05;;;;;;;1.98;1.25;;;;;;;8.18;100.00;99709.81;5043417;28;20032;-71
2023/12/24 08:19:31;;;;;;;1.42;1.30;;;;;;;8.20;100.00;99723.69;5056890;28;20056;-71
2023/12/24 08:21:56;;;;;;;1.60;1.35;;;;;;;8.22;100.00;99718.84;5059929;28;20032;-72
2023/12/24 08:24:22;;;;;;;1.70;1.30;;;;;;;8.20;100.00;99705.81;5054423;28;20036;-71
2023/12/24 08:26:48;;;;;;;2.13;1.30;;;;;;;8.20;100.00;99721.03;5069832;28;20405;-72
2023/12/24 08:29:14;;;;;;;1.50;1.10;;;;;;;8.23;100.00;99704.44;5051517;28;20453;-70
2023/12/24 08:31:40;;;;;;;2.17;1.02;;;;;;;8.25;100.00;99714.81;5046735;28;20644;-71
2023/12/24 08:34:06;;;;;;;;;;;;;;;8.25;100.00;99718.28;5056527;28;20050;-71
2023/12/24 08:36:32;;;;;;;2.55;1.30;;;;;;;8.23;100.00;99715.13;5042614;28;19917;-71
2023/12/24 08:38:57;;;;;;;1.40;1.13;;;;;;;8.24;100.00;99716.69;5054691;28;20063;-72
2023/12/24 08:41:23;;;;;;;1.40;1.20;;;;;;;8.23;100.00;99709.78;5039763;28;20072;-71
2023/12/24 08:43:49;;;;;;;2.20;1.05;;;;;;;8.24;100.00;99703.38;5056042;28;20036;-70
2023/12/24 08:46:14;;;;;;;1.20;0.90;;;;;;;8.25;100.00;99712.97;5040162;28;20729;-72
2023/12/24 08:48:40;;;;;;;1.20;1.08;;;;;;;8.28;100.00;99703.63;5055726;28;20086;-71
2023/12/24 08:51:06;;;;;;;2.78;1.55;;;;;;;8.29;100.00;99698.00;5070724;28;20157;-71
2023/12/24 08:53:32;;;;;;;1.77;1.10;;;;;;;8.32;100.00;99704.63;5054828;28;20391;-71
2023/12/24 08:55:57;;;;;;;1.60;1.20;;;;;;;8.32;100.00;99694.75;5071874;28;20032;-70
2023/12/24 08:58:23;;;;;;;1.83;1.33;;;;;;;8.33;100.00;99698.22;5053649;28;20044;-71
2023/12/24 09:00:48;;;;;;;2.05;1.10;;;;;;;8.34;100.00;99684.63;5039204;28;20040;-71
2023/12/24 09:03:17;;;;;;;1.40;1.10;;;;;;;8.38;100.00;99680.34;5053263;28;20621;-70
2023/12/24 09:05:42;;;;;;;5.97;3.58;;;;;;;8.42;100.00;99691.25;5058751;28;20094;-70
2023/12/24 09:08:08;;;;;;;73.18;34.00;;;;;;;8.44;100.00;99692.56;5057799;28;20037;-71
2023/12/24 09:10:34;;;;;;;38.08;20.08;;;;;;;8.47;100.00;99699.22;5058574;28;20553;-71
2023/12/24 09:12:59;;;;;;;29.25;17.17;;;;;;;8.48;100.00;99706.94;5058251;28;20036;-70
2023/12/24 09:15:25;;;;;;;52.65;30.10;;;;;;;8.48;100.00;99701.59;5057839;28;20033;-70
2023/12/24 09:17:50;;;;;;;29.65;13.15;;;;;;;8.52;100.00;99690.34;5060378;28;20048;-71
2023/12/24 09:20:16;;;;;;;6.40;2.33;;;;;;;8.54;100.00;99691.69;5051388;28;20067;-70
2023/12/24 09:22:42;;;;;;;;;;;;;;;8.56;100.00;99688.72;5050135;28;20033;-71
2023/12/24 09:25:08;;;;;;;3.97;2.53;;;;;;;8.60;100.00;99695.06;5056339;28;19916;-71
2023/12/24 09:27:33;;;;;;;2.75;1.90;;;;;;;8.59;100.00;99693.47;5049742;28;20058;-71
2023/12/24 09:30:04;;;;;;;25.73;7.72;;;;;;;8.60;100.00;99695.06;5056652;28;20053;-70
2023/12/24 09:32:31;;;;;;;6.38;2.22;;;;;;;8.60;100.00;99703.91;5061098;28;20032;-71
2023/12/24 09:34:57;;;;;;;84.53;26.30;;;;;;;8.64;100.00;99704.13;5059140;28;20519;-71
2023/12/24 09:37:25;;;;;;;33.70;19.70;;;;;;;8.66;100.00;99693.94;5057394;28;20082;-71
2023/12/24 09:39:50;;;;;;;6.85;2.78;;;;;;;8.68;100.00;99699.81;5056945;28;20059;-70
2023/12/24 09:42:17;;;;;;;125.38;44.28;;;;;;;8.69;100.00;99698.75;5058799;28;20118;-70
2023/12/24 09:44:42;;;;;;;20.80;7.93;;;;;;;8.71;100.00;99704.59;5053855;28;20029;-71
2023/12/24 09:47:08;;;;;;;3.28;2.53;;;;;;;8.70;100.00;99697.66;5075444;28;20146;-71
2023/12/24 09:49:34;;;;;;;3.40;1.88;;;;;;;8.69;100.00;99685.41;5058552;28;20055;-71
2023/12/24 09:51:59;;;;;;;2.38;1.98;;;;;;;8.71;100.00;99685.91;5053594;28;20028;-71
2023/12/24 09:54:25;;;;;;;1.70;1.45;;;;;;;8.73;100.00;99697.09;5059933;28;20043;-71
2023/12/24 09:56:51;;;;;;;1.75;1.30;;;;;;;8.75;100.00;99700.28;5054851;28;20068;-72
2023/12/24 09:59:17;;;;;;;1.80;1.50;;;;;;;8.78;100.00;99694.38;5049070;28;20037;-71
2023/12/24 10:01:45;;;;;;;2.80;1.40;;;;;;;8.80;100.00;99702.88;5041925;28;20033;-71
2023/12/24 10:04:13;;;;;;;1.90;1.75;;;;;;;8.82;100.00;99695.41;5057202;28;20664;-70
2023/12/24 10:06:52;;;;;;;1.55;1.27;;;;;;;8.86;100.00;99691.06;5056978;28;20123;-70
2023/12/24 10:09:21;;;;;;;2.85;1.40;;;;;;;8.90;100.00;99697.44;5058062;28;20547;-71
2023/12/24 10:12:03;;;;;;;1.80;1.42;;;;;;;8.93;100.00;99698.75;5053867;28;20791;-70
2023/12/24 10:14:28;;;;;;;1.98;1.45;;;;;;;8.94;100.00;99687.81;5048817;28;20055;-70
2023/12/24 10:16:54;;;;;;;2.40;1.50;;;;;;;8.98;100.00;99688.81;5072589;28;20130;-71
2023/12/24 10:19:24;;;;;;;1.88;1.65;;;;;;;9.01;100.00;99685.59;5058428;28;20086;-71
2023/12/24 10:22:08;;;;;;;1.90;1.60;;;;;;;9.05;100.00;99679.66;5039765;28;20044;-71
2023/12/24 10:24:43;;;;;;;;;;;;;;;9.06;100.00;99665.22;5062094;28;20044;-71
2023/12/24 10:27:10;;;;;;;1.88;1.30;;;;;;;9.11;100.00;99675.84;5061953;28;19916;-71
2023/12/24 10:29:40;;;;;;;1.73;1.20;;;;;;;9.13;100.00;99676.34;5026069;28;20040;-71
2023/12/24 10:32:10;;;;;;;2.15;1.50;;;;;;;9.15;100.00;99658.19;5055002;28;20506;-71
2023/12/24 10:34:37;;;;;;;2.10;1.20;;;;;;;9.15;100.00;99661.66;5051632;28;20363;-71
2023/12/24 10:37:19;;;;;;;1.67;1.35;;;;;;;9.18;100.00;99677.09;5060792;28;20042;-71
2023/12/24 10:39:45;;;;;;;1.67;1.10;;;;;;;9.19;100.00;99656.50;5041796;28;20525;-71
2023/12/24 10:42:11;;;;;;;1.50;1.40;;;;;;;9.20;100.00;99652.75;5053476;28;20039;-71
2023/12/24 10:44:36;;;;;;;1.52;1.30;;;;;;;9.23;100.00;99652.19;5055868;28;20033;-71
2023/12/24 10:47:05;;;;;;;2.35;1.35;;;;;;;9.24;100.00;99643.09;5057717;28;20032;-71
2023/12/24 10:49:31;;;;;;;2.05;1.40;;;;;;;9.25;100.00;99629.44;5051797;28;20032;-71
2023/12/24 10:51:59;;;;;;;2.42;1.30;;;;;;;9.30;100.00;99632.06;5041633;28;20043;-71
2023/12/24 10:54:26;;;;;;;2.42;1.20;;;;;;;9.31;100.00;99622.16;5057275;28;20067;-70
2023/12/24 10:57:18;;;;;;;1.55;1.40;;;;;;;9.35;100.00;99627.72;5057119;28;20045;-71
2023/12/24 10:59:53;;;;;;;1.75;1.33;;;;;;;9.38;100.00;99621.81;5056609;28;20029;-70
2023/12/24 11:02:19;;;;;;;1.70;1.60;;;;;;;9.41;100.00;99622.00;5059983;28;20062;-70
2023/12/24 11:04:45;;;;;;;2.75;1.10;;;;;;;9.45;100.00;99633.72;5039778;28;20782;-70
2023/12/24 11:07:34;;;;;;;2.95;1.40;;;;;;;9.47;100.00;99620.84;5073049;28;20036;-70
2023/12/24 11:10:01;;;;;;;1.73;1.15;;;;;;;9.54;100.00;99621.28;5052179;28;20040;-72
2023/12/24 11:12:37;;;;;;;3.60;1.38;;;;;;;9.56;100.00;99619.13;5050181;28;20029;-71
2023/12/24 11:15:04;;;;;;;1.42;1.33;;;;;;;9.56;100.00;99607.66;5052406;28;20071;-71
2023/12/24 11:17:33;;;;;;;1.85;1.50;;;;;;;9.60;100.00;99602.50;5061518;28;20091;-71
2023/12/24 11:20:20;;;;;;;2.00;1.30;;;;;;;9.62;100.00;99600.34;5078092;28;20555;-71
2023/12/24 11:23:04;;;;;;;2.30;1.30;;;;;;;9.64;100.00;99590.16;5047508;28;20044;-72
2023/12/24 11:25:36;;;;;;;2.13;1.40;;;;;;;9.65;100.00;99583.72;5061480;28;20101;-71
2023/12/24 11:28:02;;;;;;;2.33;1.52;;;;;;;9.62;100.00;99579.78;5061288;28;20040;-71
2023/12/24 11:30:27;;;;;;;;;;;;;;;9.62;100.00;99586.97;5051909;28;20040;-71
2023/12/24 11:32:53;;;;;;;2.53;1.30;;;;;;;9.61;100.00;99566.66;5058204;28;20302;-72